Time;durP1;ratioP1;P1;durP2;ratioP2;P2;SDS_P1;SDS_P2;PMS_P1;PMS_P2;Temp;Humidity;BMP_temperature;BMP_pressure;BME280_temperature;BME280_humidity;BME280_pressure;Samples;Min_cycle;Max_cycle;Signal;HPM_P1;HPM_P2
2022/12/12 00:01:32;;;;;;;0.30;0.30;;;0.00;99.90;;;;;;5053905;28;20221;-62
2022/12/12 00:03:58;;;;;;;0.00;0.00;;;0.00;99.90;;;;;;5053985;28;20542;-63
2022/12/12 00:06:24;;;;;;;0.03;0.03;;;0.00;99.90;;;;;;5053982;28;20181;-63
2022/12/12 00:08:51;;;;;;;0.00;0.00;;;0.00;99.90;;;;;;5053849;28;20181;-63
2022/12/12 00:11:17;;;;;;;0.00;0.00;;;-0.10;99.90;;;;;;5053796;28;20587;-63
2022/12/12 00:13:43;;;;;;;0.00;0.00;;;-0.10;99.90;;;;;;5053863;28;20284;-63
2022/12/12 00:16:09;;;;;;;0.60;0.60;;;-0.10;99.90;;;;;;5053885;28;20264;-63
2022/12/12 00:18:35;;;;;;;0.23;0.23;;;-0.10;99.90;;;;;;5053733;28;20696;-63
2022/12/12 00:21:03;;;;;;;0.00;0.00;;;-0.10;99.90;;;;;;5053549;28;20685;-62
2022/12/12 00:23:28;;;;;;;0.10;0.10;;;-0.10;99.90;;;;;;5053695;28;20256;-63
2022/12/12 00:26:00;;;;;;;0.00;0.00;;;-0.20;99.90;;;;;;5053565;28;20277;-63
2022/12/12 00:28:27;;;;;;;0.00;0.00;;;-0.20;99.90;;;;;;5053608;28;20174;-63
2022/12/12 00:30:53;;;;;;;0.00;0.00;;;-0.20;99.90;;;;;;5053541;28;20180;-63
2022/12/12 00:33:19;;;;;;;0.10;0.10;;;-0.20;99.90;;;;;;5052164;28;20182;-63
2022/12/12 00:35:47;;;;;;;0.00;0.00;;;-0.30;99.90;;;;;;5053110;28;20185;-63
2022/12/12 00:38:13;;;;;;;0.17;0.17;;;-0.30;99.90;;;;;;5052978;28;20272;-63
2022/12/12 00:40:38;;;;;;;0.20;0.20;;;-0.30;99.90;;;;;;5053184;28;20343;-62
2022/12/12 00:43:04;;;;;;;0.00;0.00;;;-0.30;99.90;;;;;;5053285;28;20231;-63
2022/12/12 00:45:30;;;;;;;0.23;0.23;;;-0.30;99.90;;;;;;5053178;28;20197;-63
2022/12/12 00:47:55;;;;;;;0.13;0.13;;;-0.30;99.90;;;;;;5052986;28;20181;-63
2022/12/12 00:50:21;;;;;;;0.00;0.00;;;-0.30;99.90;;;;;;5053202;28;20188;-63
2022/12/12 00:52:46;;;;;;;0.50;0.50;;;-0.40;99.90;;;;;;5053013;28;20625;-63
2022/12/12 00:55:12;;;;;;;0.00;0.00;;;-0.40;99.90;;;;;;5053042;28;20177;-63
2022/12/12 00:57:37;;;;;;;0.10;0.10;;;-0.40;99.90;;;;;;5052570;28;20181;-63
2022/12/12 01:00:06;;;;;;;0.13;0.13;;;-0.50;99.90;;;;;;5052921;28;20174;-63
2022/12/12 01:02:31;;;;;;;0.10;0.10;;;-0.50;99.90;;;;;;5052538;28;20182;-63
2022/12/12 01:04:57;;;;;;;0.17;0.17;;;-0.50;99.90;;;;;;5052600;28;20231;-63
2022/12/12 01:07:22;;;;;;;0.33;0.33;;;-0.50;99.90;;;;;;5049852;28;20192;-63
2022/12/12 01:09:48;;;;;;;0.00;0.00;;;-0.50;99.90;;;;;;5051360;28;20201;-63
2022/12/12 01:12:14;;;;;;;0.17;0.17;;;-0.50;99.90;;;;;;5052381;28;20257;-63
2022/12/12 01:14:39;;;;;;;0.00;0.00;;;-0.50;99.90;;;;;;5052496;28;20174;-63
2022/12/12 01:17:05;;;;;;;0.10;0.10;;;-0.50;99.90;;;;;;5051037;28;20181;-63
2022/12/12 01:19:30;;;;;;;0.73;0.60;;;-0.50;99.90;;;;;;5037709;28;20173;-63
2022/12/12 01:21:56;;;;;;;0.00;0.00;;;-0.50;99.90;;;;;;5052451;28;20209;-63
2022/12/12 01:24:21;;;;;;;0.00;0.00;;;-0.50;99.90;;;;;;5052550;28;20667;-63
2022/12/12 01:26:47;;;;;;;0.23;0.23;;;-0.50;99.90;;;;;;5052436;28;20185;-63
2022/12/12 01:29:12;;;;;;;0.00;0.00;;;-0.60;99.90;;;;;;5052479;28;20252;-63
2022/12/12 01:31:38;;;;;;;0.37;0.37;;;-0.60;99.90;;;;;;5052074;28;20208;-63
2022/12/12 01:34:03;;;;;;;0.10;0.10;;;-0.60;99.90;;;;;;5051894;28;20169;-63
2022/12/12 01:36:29;;;;;;;0.00;0.00;;;-0.60;99.90;;;;;;5058720;28;20662;-63
2022/12/12 01:38:55;;;;;;;0.30;0.30;;;-0.60;99.90;;;;;;5050282;28;20178;-63
2022/12/12 01:41:22;;;;;;;0.10;0.10;;;-0.70;99.90;;;;;;5049756;28;20213;-63
2022/12/12 01:43:48;;;;;;;0.60;0.30;;;-0.70;99.90;;;;;;5049816;28;20219;-63
2022/12/12 01:46:35;;;;;;;0.10;0.10;;;-0.70;99.90;;;;;;5051633;28;20588;-63
2022/12/12 01:49:11;;;;;;;0.30;0.30;;;-0.70;99.90;;;;;;5051429;28;20692;-63
2022/12/12 01:51:38;;;;;;;0.00;0.00;;;-0.80;99.90;;;;;;5051719;28;20210;-63
2022/12/12 01:54:08;;;;;;;0.00;0.00;;;-0.80;99.90;;;;;;5051198;28;20273;-63
2022/12/12 01:56:36;;;;;;;0.07;0.07;;;-0.80;99.90;;;;;;5051258;28;20529;-63
2022/12/12 01:59:04;;;;;;;0.10;0.10;;;-0.90;99.90;;;;;;5051535;28;20596;-62
2022/12/12 02:01:30;;;;;;;0.07;0.07;;;-0.90;99.90;;;;;;5051448;28;20217;-63
2022/12/12 02:03:57;;;;;;;0.00;0.00;;;-0.90;99.90;;;;;;5051517;28;20196;-63
2022/12/12 02:06:26;;;;;;;0.27;0.27;;;-0.90;99.90;;;;;;5051670;28;20870;-63
2022/12/12 02:08:55;;;;;;;0.00;0.00;;;-1.00;99.90;;;;;;5051608;28;20195;-63
2022/12/12 02:11:21;;;;;;;0.40;0.13;;;-1.00;99.90;;;;;;5051290;28;20233;-63
2022/12/12 02:13:47;;;;;;;0.10;0.10;;;-1.10;99.90;;;;;;5051534;28;20726;-63
2022/12/12 02:16:37;;;;;;;0.97;0.60;;;-1.10;99.90;;;;;;5051326;28;20189;-63
2022/12/12 02:19:27;;;;;;;0.00;0.00;;;-1.10;99.90;;;;;;5051376;28;20211;-63
2022/12/12 02:22:03;;;;;;;0.00;0.00;;;-1.20;99.90;;;;;;5051438;28;20223;-63
2022/12/12 02:24:52;;;;;;;0.00;0.00;;;-1.20;99.90;;;;;;5051379;28;20220;-63
2022/12/12 02:27:47;;;;;;;0.00;0.00;;;-1.20;99.90;;;;;;5051674;28;20180;-63
2022/12/12 02:30:23;;;;;;;0.20;0.20;;;-1.20;99.90;;;;;;5051255;28;20213;-63
2022/12/12 02:33:01;;;;;;;0.00;0.00;;;-1.30;99.90;;;;;;5047530;28;20230;-63
2022/12/12 02:35:43;;;;;;;0.00;0.00;;;-1.30;99.90;;;;;;5030535;28;20244;-63
2022/12/12 02:38:22;;;;;;;0.00;0.00;;;-1.30;99.90;;;;;;5042360;28;20373;-63
2022/12/12 02:41:07;;;;;;;0.00;0.00;;;-1.30;99.90;;;;;;5051316;28;20197;-63
2022/12/12 02:43:40;;;;;;;0.20;0.20;;;-1.30;99.90;;;;;;5051605;28;20182;-64
2022/12/12 02:46:32;;;;;;;0.27;0.13;;;-1.30;99.90;;;;;;5051104;28;20205;-63
2022/12/12 02:49:39;;;;;;;0.20;0.20;;;-1.30;99.90;;;;;;5050732;28;20190;-63
2022/12/12 02:52:07;;;;;;;0.00;0.00;;;-1.30;99.90;;;;;;5028243;28;20213;-63
2022/12/12 02:54:33;;;;;;;0.20;0.20;;;-1.40;99.90;;;;;;5031250;28;20197;-63
2022/12/12 02:57:00;;;;;;;0.10;0.10;;;-1.40;99.90;;;;;;5048045;28;20284;-63
2022/12/12 02:59:49;;;;;;;0.00;0.00;;;-1.40;99.90;;;;;;5051236;28;20192;-63
2022/12/12 03:02:26;;;;;;;0.27;0.20;;;-1.40;99.90;;;;;;5052110;28;20239;-63
2022/12/12 03:07:51;;;;;;;0.00;0.00;;;-1.50;99.90;;;;;;5054621;28;20251;-63
2022/12/12 03:10:31;;;;;;;0.20;0.20;;;-1.50;99.90;;;;;;5039969;28;20181;-63
2022/12/12 03:13:07;;;;;;;0.20;0.20;;;-1.60;99.90;;;;;;5043972;28;20188;-63
2022/12/12 03:15:54;;;;;;;0.00;0.00;;;-1.60;99.90;;;;;;5054425;28;20192;-63
2022/12/12 03:18:36;;;;;;;0.10;0.10;;;-1.70;99.90;;;;;;5054413;28;20260;-63
2022/12/12 03:21:11;;;;;;;0.00;0.00;;;-1.70;99.90;;;;;;5054728;28;20259;-63
2022/12/12 03:23:42;;;;;;;0.00;0.00;;;-1.70;99.90;;;;;;5054633;28;20178;-63
2022/12/12 03:26:16;;;;;;;0.20;0.20;;;-1.70;99.90;;;;;;5054639;28;20188;-63
2022/12/12 03:28:50;;;;;;;0.00;0.00;;;-1.70;99.90;;;;;;5053258;28;20182;-63
2022/12/12 03:31:20;;;;;;;0.10;0.10;;;-1.70;99.90;;;;;;5054382;28;20177;-63
2022/12/12 03:33:59;;;;;;;0.00;0.00;;;-1.70;99.90;;;;;;5054121;28;20169;-63
2022/12/12 03:36:31;;;;;;;0.00;0.00;;;-1.70;99.90;;;;;;5054439;28;20207;-63
2022/12/12 03:39:10;;;;;;;0.30;0.30;;;-1.70;99.90;;;;;;5052863;28;20181;-63
2022/12/12 03:41:50;;;;;;;0.00;0.00;;;-1.70;99.90;;;;;;5033379;28;20224;-64
2022/12/12 03:44:25;;;;;;;0.40;0.40;;;-1.70;99.90;;;;;;5046776;28;20691;-63
2022/12/12 03:47:13;;;;;;;0.00;0.00;;;-1.80;99.90;;;;;;5054056;28;20515;-64
2022/12/12 03:49:44;;;;;;;0.00;0.00;;;-1.80;99.90;;;;;;5052215;28;20206;-63
2022/12/12 03:52:36;;;;;;;0.13;0.13;;;-1.80;99.90;;;;;;5046158;28;20184;-62
2022/12/12 03:55:13;;;;;;;0.00;0.00;;;-1.90;99.90;;;;;;5053697;28;20202;-63
2022/12/12 03:57:47;;;;;;;0.00;0.00;;;-1.90;99.90;;;;;;5054124;28;20184;-62
2022/12/12 04:00:14;;;;;;;0.00;0.00;;;-1.90;99.90;;;;;;5053803;28;20200;-62
2022/12/12 04:02:45;;;;;;;0.13;0.13;;;-1.90;99.90;;;;;;5053809;28;20625;-62
2022/12/12 04:05:25;;;;;;;0.37;0.37;;;-1.90;99.90;;;;;;5054082;28;20170;-63
2022/12/12 04:07:59;;;;;;;0.83;0.83;;;-1.90;99.90;;;;;;5053139;28;20279;-62
2022/12/12 04:13:39;;;;;;;0.03;0.03;;;-1.90;99.90;;;;;;5053830;28;20227;-60
2022/12/12 04:16:11;;;;;;;0.30;0.30;;;-1.90;99.90;;;;;;5053831;28;20177;-61
2022/12/12 04:19:00;;;;;;;0.00;0.00;;;-1.90;99.90;;;;;;5053560;28;20189;-61
2022/12/12 04:24:45;;;;;;;0.07;0.07;;;-2.00;99.90;;;;;;5053711;28;20181;-60
2022/12/12 04:27:46;;;;;;;0.23;0.23;;;-2.10;99.90;;;;;;5053752;28;20174;-62
2022/12/12 04:30:14;;;;;;;0.33;0.13;;;-2.10;99.90;;;;;;5032300;28;20648;-61
2022/12/12 04:33:01;;;;;;;0.20;0.20;;;-2.10;99.90;;;;;;5046038;28;20228;-62
2022/12/12 04:35:42;;;;;;;0.00;0.00;;;-2.10;99.90;;;;;;5053268;28;20186;-61
2022/12/12 04:38:12;;;;;;;0.10;0.10;;;-2.10;99.90;;;;;;5053547;28;20216;-61
2022/12/12 04:40:41;;;;;;;0.00;0.00;;;-2.00;99.90;;;;;;5053211;28;20212;-62
2022/12/12 04:43:32;;;;;;;0.00;0.00;;;-2.00;99.90;;;;;;5052413;28;20228;-61
2022/12/12 04:46:01;;;;;;;0.03;0.03;;;-2.00;99.90;;;;;;5042708;28;20173;-61
2022/12/12 04:48:32;;;;;;;0.30;0.30;;;-2.00;99.90;;;;;;5053253;28;20182;-62
2022/12/12 04:51:00;;;;;;;0.27;0.27;;;-2.00;99.90;;;;;;5052415;28;20189;-62
2022/12/12 04:53:32;;;;;;;0.23;0.23;;;-1.90;99.90;;;;;;5052853;28;20186;-62
2022/12/12 04:56:00;;;;;;;0.53;0.53;;;-1.90;99.90;;;;;;5052620;28;20221;-60
2022/12/12 04:58:26;;;;;;;0.00;0.00;;;-1.90;99.90;;;;;;5053112;28;20544;-62
2022/12/12 05:01:07;;;;;;;0.00;0.00;;;-1.90;99.90;;;;;;5052820;28;20687;-58
2022/12/12 05:03:50;;;;;;;0.00;0.00;;;-1.90;99.90;;;;;;5053010;28;20188;-58
2022/12/12 05:06:35;;;;;;;0.00;0.00;;;-1.90;99.90;;;;;;5052571;28;20185;-59
2022/12/12 05:09:02;;;;;;;0.27;0.27;;;-1.90;99.90;;;;;;5052571;28;20223;-59
2022/12/12 05:11:27;;;;;;;0.00;0.00;;;-1.90;99.90;;;;;;5052678;28;20240;-59
2022/12/12 05:13:53;;;;;;;0.00;0.00;;;-1.90;99.90;;;;;;5052697;28;20189;-60
2022/12/12 05:16:25;;;;;;;0.10;0.10;;;-1.90;99.90;;;;;;5052681;28;20195;-60
2022/12/12 05:18:50;;;;;;;0.43;0.43;;;-1.90;99.90;;;;;;5052733;28;20188;-60
2022/12/12 05:21:16;;;;;;;0.00;0.00;;;-1.80;99.90;;;;;;5052454;28;20570;-60
2022/12/12 05:23:42;;;;;;;0.20;0.20;;;-1.80;99.90;;;;;;5052023;28;20220;-60
2022/12/12 05:26:14;;;;;;;0.00;0.00;;;-1.80;99.90;;;;;;5052786;28;20669;-60
2022/12/12 05:28:39;;;;;;;0.53;0.53;;;-1.70;99.90;;;;;;5052524;28;20182;-60
2022/12/12 05:31:05;;;;;;;0.43;0.43;;;-1.70;99.90;;;;;;5052449;28;20173;-61
2022/12/12 05:33:30;;;;;;;0.00;0.00;;;-1.60;99.90;;;;;;5052294;28;20579;-60
2022/12/12 05:35:56;;;;;;;0.30;0.30;;;-1.60;99.90;;;;;;5050979;28;20192;-60
2022/12/12 05:38:21;;;;;;;0.13;0.13;;;-1.60;99.90;;;;;;5052325;28;20183;-60
2022/12/12 05:40:48;;;;;;;0.00;0.00;;;-1.50;99.90;;;;;;5052196;28;20284;-60
2022/12/12 05:43:13;;;;;;;0.00;0.00;;;-1.50;99.90;;;;;;5052196;28;20185;-60
2022/12/12 05:45:39;;;;;;;0.07;0.07;;;-1.50;99.90;;;;;;5051987;28;20169;-61
2022/12/12 05:48:05;;;;;;;0.30;0.30;;;-1.50;99.90;;;;;;5052255;28;20170;-60
2022/12/12 05:50:30;;;;;;;0.00;0.00;;;-1.50;99.90;;;;;;5052168;28;20189;-60
2022/12/12 05:52:56;;;;;;;0.10;0.10;;;-1.50;99.90;;;;;;5052131;28;20174;-58
2022/12/12 05:55:21;;;;;;;0.00;0.00;;;-1.60;99.90;;;;;;5052111;28;20181;-59
2022/12/12 05:57:47;;;;;;;0.00;0.00;;;-1.60;99.90;;;;;;5051915;28;20706;-58
2022/12/12 06:00:12;;;;;;;0.00;0.00;;;-1.60;99.90;;;;;;5051611;28;20177;-60
2022/12/12 06:02:38;;;;;;;0.40;0.40;;;-1.60;99.90;;;;;;5051530;28;20185;-60
2022/12/12 06:05:04;;;;;;;0.00;0.00;;;-1.60;99.90;;;;;;5050974;28;20188;-60
2022/12/12 06:07:30;;;;;;;0.13;0.13;;;-1.60;99.90;;;;;;5051290;28;20260;-59
2022/12/12 06:09:55;;;;;;;0.50;0.50;;;-1.60;99.90;;;;;;5052108;28;20177;-60
2022/12/12 06:12:21;;;;;;;0.00;0.00;;;-1.60;99.90;;;;;;5051755;28;20221;-59
2022/12/12 06:14:47;;;;;;;0.00;0.00;;;-1.60;99.90;;;;;;5051789;28;20162;-59
2022/12/12 06:17:12;;;;;;;0.67;0.67;;;-1.60;99.90;;;;;;5051951;28;20181;-59
2022/12/12 06:19:38;;;;;;;0.10;0.10;;;-1.60;99.90;;;;;;5051994;28;20512;-60
2022/12/12 06:22:04;;;;;;;0.20;0.20;;;-1.70;99.90;;;;;;5051880;28;20217;-60
2022/12/12 06:24:29;;;;;;;0.00;0.00;;;-1.70;99.90;;;;;;5051849;28;20687;-59
2022/12/12 06:26:55;;;;;;;1.63;1.33;;;-1.80;99.90;;;;;;5051720;28;20530;-59
2022/12/12 06:29:20;;;;;;;0.20;0.20;;;-1.80;99.90;;;;;;5051841;28;20169;-60
2022/12/12 06:31:46;;;;;;;0.50;0.50;;;-1.80;99.90;;;;;;5051660;28;20177;-60
2022/12/12 06:34:11;;;;;;;0.10;0.10;;;-1.80;99.90;;;;;;5051968;28;20184;-59
2022/12/12 06:36:37;;;;;;;0.00;0.00;;;-1.80;99.90;;;;;;5055756;28;20181;-59
2022/12/12 06:39:02;;;;;;;0.30;0.30;;;-1.80;99.90;;;;;;5055572;28;20178;-59
2022/12/12 06:41:30;;;;;;;0.10;0.10;;;-1.80;99.90;;;;;;5055632;28;20205;-59
2022/12/12 06:43:55;;;;;;;0.00;0.00;;;-1.80;99.90;;;;;;5055511;28;20170;-60
2022/12/12 06:46:24;;;;;;;0.10;0.10;;;-1.90;99.90;;;;;;5055622;28;20224;-59
2022/12/12 06:48:51;;;;;;;0.20;0.20;;;-1.90;99.90;;;;;;5055566;28;20713;-59
2022/12/12 06:51:19;;;;;;;0.00;0.00;;;-1.90;99.90;;;;;;5055470;28;20177;-60
2022/12/12 06:53:45;;;;;;;0.00;0.00;;;-1.90;99.90;;;;;;5055373;28;20268;-60
2022/12/12 06:56:20;;;;;;;0.00;0.00;;;-1.90;99.90;;;;;;5055534;28;20180;-60
2022/12/12 06:58:46;;;;;;;0.10;0.10;;;-1.90;99.90;;;;;;5055263;28;20180;-59
2022/12/12 07:01:13;;;;;;;0.00;0.00;;;-2.00;99.90;;;;;;5055369;28;20267;-59
2022/12/12 07:03:39;;;;;;;0.03;0.03;;;-2.00;99.90;;;;;;5055366;28;20300;-60
2022/12/12 07:06:05;;;;;;;0.10;0.10;;;-2.00;99.90;;;;;;5055378;28;20624;-60
2022/12/12 07:08:33;;;;;;;0.17;0.17;;;-2.00;99.90;;;;;;5053811;28;20534;-60
2022/12/12 07:11:04;;;;;;;0.00;0.00;;;-2.10;99.90;;;;;;5054959;28;20225;-60
2022/12/12 07:13:30;;;;;;;0.93;0.57;;;-2.10;99.90;;;;;;5055245;28;20174;-59
2022/12/12 07:15:55;;;;;;;0.07;0.07;;;-2.20;99.90;;;;;;5055038;28;20655;-60
2022/12/12 07:18:21;;;;;;;0.30;0.30;;;-2.20;99.90;;;;;;5053848;28;20181;-59
2022/12/12 07:20:46;;;;;;;0.00;0.00;;;-2.20;99.90;;;;;;5054802;28;20200;-59
2022/12/12 07:23:12;;;;;;;0.00;0.00;;;-2.20;99.90;;;;;;5055044;28;20176;-59
2022/12/12 07:25:42;;;;;;;0.00;0.00;;;-2.10;99.90;;;;;;5054924;28;20166;-60
2022/12/12 07:28:09;;;;;;;0.00;0.00;;;-2.10;99.90;;;;;;5054857;28;20177;-59
2022/12/12 07:30:41;;;;;;;0.10;0.10;;;-2.20;99.90;;;;;;5054690;28;20178;-59
2022/12/12 07:33:07;;;;;;;0.00;0.00;;;-2.20;99.90;;;;;;5054894;28;20299;-60
2022/12/12 07:35:33;;;;;;;0.30;0.30;;;-2.10;99.90;;;;;;5054713;28;20283;-60
2022/12/12 07:37:59;;;;;;;0.33;0.33;;;-2.10;99.90;;;;;;5054680;28;20586;-59
2022/12/12 07:40:24;;;;;;;0.10;0.10;;;-2.00;99.90;;;;;;5054613;28;20205;-59
2022/12/12 07:42:50;;;;;;;0.37;0.37;;;-2.00;99.90;;;;;;5054504;28;20633;-60
2022/12/12 07:45:16;;;;;;;0.30;0.30;;;-2.00;99.90;;;;;;5054159;28;20181;-60
2022/12/12 07:47:41;;;;;;;0.73;0.73;;;-2.00;99.90;;;;;;5054504;28;20185;-60
2022/12/12 07:50:07;;;;;;;0.10;0.10;;;-1.90;99.90;;;;;;5054448;28;20637;-59
2022/12/12 07:52:33;;;;;;;0.17;0.17;;;-1.90;99.90;;;;;;5053034;28;20189;-60
2022/12/12 07:54:58;;;;;;;0.20;0.20;;;-1.90;99.90;;;;;;5054263;28;20177;-60
2022/12/12 07:57:24;;;;;;;0.00;0.00;;;-1.90;99.90;;;;;;5054379;28;20177;-60
2022/12/12 07:59:49;;;;;;;0.00;0.00;;;-1.80;99.90;;;;;;5054225;28;20182;-59
2022/12/12 08:02:15;;;;;;;0.10;0.10;;;-1.70;99.90;;;;;;5054081;28;20221;-59
2022/12/12 08:04:40;;;;;;;0.00;0.00;;;-1.70;99.90;;;;;;5054381;28;20197;-60
2022/12/12 08:07:06;;;;;;;0.00;0.00;;;-1.70;99.90;;;;;;5054028;28;20177;-60
2022/12/12 08:09:31;;;;;;;0.00;0.00;;;-1.70;99.90;;;;;;5054052;28;20664;-60
2022/12/12 08:11:58;;;;;;;0.00;0.00;;;-1.70;99.90;;;;;;5053679;28;20570;-60
2022/12/12 08:14:24;;;;;;;0.00;0.00;;;-1.60;99.90;;;;;;5054305;28;20201;-59
2022/12/12 08:16:50;;;;;;;0.20;0.20;;;-1.60;99.90;;;;;;5053952;28;20177;-59
2022/12/12 08:19:16;;;;;;;0.10;0.10;;;-1.50;99.90;;;;;;5054142;28;20227;-59
2022/12/12 08:21:43;;;;;;;0.10;0.10;;;-1.50;99.90;;;;;;5053791;28;20243;-60
2022/12/12 08:24:12;;;;;;;0.00;0.00;;;-1.40;99.90;;;;;;5053943;28;20637;-59
2022/12/12 08:26:37;;;;;;;0.00;0.00;;;-1.30;99.90;;;;;;5053553;28;20181;-59
2022/12/12 08:29:03;;;;;;;0.00;0.00;;;-1.30;99.90;;;;;;5053799;28;20172;-59
2022/12/12 08:31:29;;;;;;;0.43;0.30;;;-1.20;99.90;;;;;;5053964;28;20701;-59
2022/12/12 08:33:55;;;;;;;0.00;0.00;;;-1.20;99.90;;;;;;5052301;28;20213;-59
2022/12/12 08:36:24;;;;;;;0.13;0.13;;;-1.10;99.90;;;;;;5053651;28;20205;-60
2022/12/12 08:38:50;;;;;;;0.30;0.30;;;-1.10;99.90;;;;;;5053582;28;20176;-60
2022/12/12 08:41:18;;;;;;;0.20;0.20;;;-1.00;99.90;;;;;;5053379;28;20300;-59
2022/12/12 08:43:44;;;;;;;0.43;0.40;;;-0.90;99.90;;;;;;5053460;28;20256;-59
2022/12/12 08:46:10;;;;;;;0.10;0.10;;;-0.90;99.90;;;;;;5053594;28;20544;-59
2022/12/12 08:48:36;;;;;;;0.10;0.10;;;-0.90;99.90;;;;;;5053466;28;20174;-60
2022/12/12 08:51:02;;;;;;;0.60;0.30;;;-0.90;99.90;;;;;;5053321;28;20196;-60
2022/12/12 08:53:27;;;;;;;0.00;0.00;;;-0.80;99.90;;;;;;5053327;28;20185;-60
2022/12/12 08:55:53;;;;;;;0.00;0.00;;;-0.80;99.90;;;;;;5053134;28;20677;-59
2022/12/12 08:58:19;;;;;;;0.00;0.00;;;-0.70;99.90;;;;;;5052381;28;20252;-59
2022/12/12 09:00:44;;;;;;;0.50;0.50;;;-0.70;99.90;;;;;;5053014;28;20213;-60
2022/12/12 09:03:10;;;;;;;0.00;0.00;;;-0.70;99.90;;;;;;5051987;28;20189;-59
2022/12/12 09:05:36;;;;;;;0.13;0.13;;;-0.60;99.90;;;;;;5052947;28;20185;-59
2022/12/12 09:08:01;;;;;;;0.00;0.00;;;-0.60;99.90;;;;;;5053017;28;20579;-60
2022/12/12 09:10:27;;;;;;;0.00;0.00;;;-0.60;99.90;;;;;;5052742;28;20185;-60
2022/12/12 09:12:53;;;;;;;0.37;0.37;;;-0.60;99.90;;;;;;5052852;28;20180;-60
2022/12/12 09:15:19;;;;;;;0.03;0.03;;;-0.50;99.90;;;;;;5052976;28;20655;-59
2022/12/12 09:17:45;;;;;;;0.37;0.37;;;-0.50;99.90;;;;;;5052688;28;20170;-59
2022/12/12 09:20:11;;;;;;;0.10;0.10;;;-0.40;99.90;;;;;;5052699;28;20323;-60
2022/12/12 09:22:36;;;;;;;0.10;0.10;;;-0.30;99.90;;;;;;5052563;28;20182;-59
2022/12/12 09:25:03;;;;;;;0.10;0.10;;;-0.20;99.90;;;;;;5052630;28;20185;-59
2022/12/12 09:27:29;;;;;;;0.23;0.23;;;-0.20;99.90;;;;;;5052652;28;20192;-59
2022/12/12 09:29:54;;;;;;;0.00;0.00;;;-0.20;99.90;;;;;;5051203;28;20181;-59
2022/12/12 09:32:21;;;;;;;0.13;0.13;;;-0.10;99.90;;;;;;5052552;28;20186;-60
2022/12/12 09:34:47;;;;;;;0.00;0.00;;;0.00;99.90;;;;;;5052418;28;20184;-60
2022/12/12 09:37:12;;;;;;;0.00;0.00;;;0.00;99.90;;;;;;5052481;28;20189;-60
2022/12/12 09:39:38;;;;;;;0.13;0.13;;;0.00;99.90;;;;;;5052477;28;20641;-60
2022/12/12 09:42:29;;;;;;;0.37;0.37;;;0.00;99.90;;;;;;5052302;28;20755;-59
2022/12/12 09:45:06;;;;;;;0.17;0.17;;;-0.10;99.90;;;;;;5052317;28;20182;-59
2022/12/12 09:47:40;;;;;;;0.00;0.00;;;-0.20;99.90;;;;;;5052369;28;20181;-60
2022/12/12 09:50:38;;;;;;;0.20;0.20;;;-0.20;99.90;;;;;;5052268;28;20678;-59
2022/12/12 09:53:10;;;;;;;0.20;0.20;;;-0.20;99.90;;;;;;5052186;28;20676;-59
2022/12/12 09:56:03;;;;;;;0.00;0.00;;;-0.20;99.90;;;;;;5052079;28;20209;-60
2022/12/12 09:58:41;;;;;;;0.00;0.00;;;-0.20;99.90;;;;;;5052215;28;20181;-59
2022/12/12 10:01:29;;;;;;;0.00;0.00;;;-0.20;99.90;;;;;;5052122;28;20212;-59
2022/12/12 10:04:03;;;;;;;0.00;0.00;;;-0.10;99.90;;;;;;5051981;28;20189;-59
2022/12/12 10:06:40;;;;;;;0.47;0.47;;;-0.10;99.90;;;;;;5052082;28;20640;-60
2022/12/12 10:09:14;;;;;;;0.00;0.00;;;0.00;99.90;;;;;;5051964;28;20168;-59
2022/12/12 10:11:50;;;;;;;0.00;0.00;;;0.00;99.90;;;;;;5051896;28;20266;-60
2022/12/12 10:14:35;;;;;;;0.30;0.30;;;0.20;99.90;;;;;;5052014;28;20169;-60
2022/12/12 10:17:05;;;;;;;0.40;0.37;;;0.30;99.90;;;;;;5052170;28;20585;-60
2022/12/12 10:19:37;;;;;;;0.23;0.23;;;0.40;99.90;;;;;;5052084;28;20173;-60
2022/12/12 10:22:13;;;;;;;0.23;0.23;;;0.50;99.90;;;;;;5051884;28;20201;-59
2022/12/12 10:24:46;;;;;;;0.47;0.43;;;0.60;99.90;;;;;;5051969;28;20161;-59
2022/12/12 10:27:13;;;;;;;0.00;0.00;;;0.80;99.90;;;;;;5052053;28;20181;-59
2022/12/12 10:29:45;;;;;;;0.00;0.00;;;0.90;99.90;;;;;;5051963;28;20192;-60
2022/12/12 10:32:32;;;;;;;0.33;0.33;;;0.90;99.90;;;;;;5051960;28;20257;-59
2022/12/12 10:35:01;;;;;;;0.33;0.33;;;0.80;99.90;;;;;;5051813;28;20176;-60
2022/12/12 10:37:47;;;;;;;0.30;0.30;;;0.80;99.90;;;;;;5051806;28;20179;-59
2022/12/12 10:40:34;;;;;;;0.00;0.00;;;0.80;99.90;;;;;;5051857;28;20745;-59
2022/12/12 10:43:12;;;;;;;0.00;0.00;;;0.90;99.90;;;;;;5051883;28;20257;-60
2022/12/12 10:46:02;;;;;;;0.20;0.20;;;1.10;99.90;;;;;;5051649;28;20177;-60
2022/12/12 10:48:31;;;;;;;0.10;0.10;;;1.10;99.90;;;;;;5051744;28;20539;-59
2022/12/12 10:51:03;;;;;;;0.00;0.00;;;1.10;99.90;;;;;;5051581;28;20186;-60
2022/12/12 10:53:30;;;;;;;0.43;0.20;;;1.10;99.90;;;;;;5051739;28;20327;-59
2022/12/12 10:56:08;;;;;;;0.10;0.10;;;1.10;99.90;;;;;;5051468;28;20166;-60
2022/12/12 10:58:42;;;;;;;0.33;0.33;;;1.10;99.90;;;;;;5051479;28;20185;-60
2022/12/12 11:01:19;;;;;;;0.00;0.00;;;1.20;99.90;;;;;;5050254;28;20216;-60
2022/12/12 11:03:48;;;;;;;0.10;0.10;;;1.30;99.90;;;;;;5051473;28;20655;-60
2022/12/12 11:06:37;;;;;;;0.40;0.20;;;1.30;99.90;;;;;;5051470;28;20243;-60
2022/12/12 11:09:14;;;;;;;0.00;0.00;;;1.40;99.90;;;;;;5051264;28;20185;-61
2022/12/12 11:11:40;;;;;;;0.30;0.23;;;1.30;99.90;;;;;;5051308;28;20223;-60
2022/12/12 11:14:26;;;;;;;0.10;0.10;;;1.30;99.90;;;;;;5051543;28;20545;-60
2022/12/12 11:16:51;;;;;;;0.40;0.40;;;1.20;99.90;;;;;;5051376;28;20185;-60
2022/12/12 11:19:23;;;;;;;0.00;0.00;;;1.10;99.90;;;;;;5051375;28;20184;-60
2022/12/12 11:21:49;;;;;;;0.20;0.20;;;1.00;99.90;;;;;;5053811;28;20235;-59
2022/12/12 11:24:19;;;;;;;0.00;0.00;;;1.00;99.90;;;;;;5054986;28;20620;-59
2022/12/12 11:26:57;;;;;;;0.00;0.00;;;1.10;99.90;;;;;;5054895;28;20534;-59
2022/12/12 11:29:42;;;;;;;0.00;0.00;;;1.20;99.90;;;;;;5054933;28;20663;-60
2022/12/12 11:32:17;;;;;;;0.30;0.30;;;1.20;99.90;;;;;;5054722;28;20576;-59
2022/12/12 11:34:47;;;;;;;0.00;0.00;;;1.30;99.90;;;;;;5054811;28;20254;-59
2022/12/12 11:37:25;;;;;;;0.10;0.10;;;1.30;99.90;;;;;;5054731;28;20193;-59
2022/12/12 11:39:52;;;;;;;0.30;0.23;;;1.30;99.90;;;;;;5054737;28;20173;-60
2022/12/12 11:42:25;;;;;;;0.00;0.00;;;1.30;99.90;;;;;;5054524;28;20539;-59
2022/12/12 11:45:07;;;;;;;0.00;0.00;;;1.30;99.90;;;;;;5054586;28;20572;-59
2022/12/12 11:47:42;;;;;;;0.40;0.40;;;1.30;99.90;;;;;;5054497;28;20210;-60
2022/12/12 11:50:24;;;;;;;0.00;0.00;;;1.40;99.90;;;;;;5054438;28;20221;-60
2022/12/12 11:52:56;;;;;;;0.30;0.30;;;1.40;99.90;;;;;;5054291;28;20178;-59
2022/12/12 11:55:47;;;;;;;0.00;0.00;;;1.50;99.90;;;;;;5053050;28;20634;-59
2022/12/12 11:58:46;;;;;;;0.00;0.00;;;1.50;99.90;;;;;;5053002;28;20423;-59
2022/12/12 12:01:20;;;;;;;0.00;0.00;;;1.60;99.90;;;;;;5050190;28;20302;-59
2022/12/12 12:04:10;;;;;;;0.00;0.00;;;1.50;99.90;;;;;;5052946;28;20177;-59
2022/12/12 12:07:06;;;;;;;0.00;0.00;;;1.50;99.90;;;;;;5054337;28;20189;-60
2022/12/12 12:10:12;;;;;;;0.20;0.20;;;1.70;99.90;;;;;;5034174;28;20170;-60
2022/12/12 12:13:05;;;;;;;0.00;0.00;;;1.80;99.90;;;;;;5032808;28;20558;-60
2022/12/12 12:15:59;;;;;;;0.00;0.00;;;1.80;99.90;;;;;;5034088;28;20293;-60
2022/12/12 12:18:30;;;;;;;0.00;0.00;;;1.80;99.90;;;;;;5032863;28;20240;-59
2022/12/12 12:21:18;;;;;;;0.00;0.00;;;1.70;99.90;;;;;;5033624;28;20198;-59
2022/12/12 12:24:02;;;;;;;0.33;0.07;;;1.60;99.90;;;;;;5033992;28;20170;-59
2022/12/12 12:26:54;;;;;;;0.40;0.20;;;1.60;99.90;;;;;;5033891;28;20197;-60
2022/12/12 12:30:01;;;;;;;0.00;0.00;;;1.60;99.90;;;;;;5033755;28;20170;-59
2022/12/12 12:32:54;;;;;;;0.30;0.25;;;1.60;99.90;;;;;;5033335;28;20186;-59
2022/12/12 12:35:30;;;;;;;0.10;0.10;;;1.50;99.90;;;;;;5033748;28;20235;-59
2022/12/12 12:38:50;;;;;;;0.00;0.00;;;1.40;99.90;;;;;;5033471;28;20641;-59
2022/12/12 12:41:36;;;;;;;0.00;0.00;;;1.40;99.90;;;;;;5031022;28;20264;-59
2022/12/12 12:44:39;;;;;;;0.10;0.10;;;1.30;99.90;;;;;;5033291;28;20269;-59
2022/12/12 12:47:32;;;;;;;0.17;0.17;;;1.20;99.90;;;;;;5033590;28;20200;-59
2022/12/12 12:50:01;;;;;;;0.20;0.20;;;1.10;99.90;;;;;;5035894;28;20703;-59
2022/12/12 12:52:57;;;;;;;0.10;0.10;;;1.10;99.90;;;;;;5053301;28;20257;-59
2022/12/12 12:55:31;;;;;;;0.33;0.33;;;1.10;99.90;;;;;;5049989;28;20699;-59
2022/12/12 12:57:59;;;;;;;0.07;0.07;;;1.10;99.90;;;;;;5053050;28;20184;-59
2022/12/12 13:00:27;;;;;;;0.07;0.07;;;1.20;99.90;;;;;;5053005;28;20633;-59
2022/12/12 13:03:13;;;;;;;0.00;0.00;;;1.20;99.90;;;;;;5052994;28;20182;-60
2022/12/12 13:05:45;;;;;;;0.17;0.17;;;1.10;99.90;;;;;;5052901;28;20589;-60
2022/12/12 13:08:46;;;;;;;0.07;0.07;;;1.10;99.90;;;;;;5051778;28;20186;-60
2022/12/12 13:11:19;;;;;;;0.20;0.20;;;1.10;99.90;;;;;;5052584;28;20255;-59
2022/12/12 13:13:47;;;;;;;0.00;0.00;;;1.20;99.90;;;;;;5051888;28;20231;-59
2022/12/12 13:16:18;;;;;;;0.10;0.10;;;1.20;99.90;;;;;;5065620;28;20186;-59
2022/12/12 13:18:49;;;;;;;0.10;0.10;;;1.20;99.90;;;;;;5064676;28;20186;-59
2022/12/12 13:21:32;;;;;;;0.27;0.27;;;1.20;99.90;;;;;;5052577;28;20217;-60
2022/12/12 13:24:03;;;;;;;0.00;0.00;;;1.20;99.90;;;;;;5052759;28;20256;-58
2022/12/12 13:26:53;;;;;;;0.00;0.00;;;1.10;99.90;;;;;;5052691;28;20203;-58